Canefield, Roseau Canefield Airport (TDCF)

NameRoseau Canefield Airport
CityCanefield
CountryDominica
ICAOTDCF
IATADCF
Altitude4 m
CoordinatesGoogle Map
Live Air TrafficLiveATC.net
METARTDCF 211400Z 27002KT 9999 SCT018 30/24 Q1015
2019-08-21 14:00:00 Wind: West (270°) 1.03 m/s - Visibility: > 10000 m - Temperature: 30 °C - Dew point: 24 °C - Humidity: 70.3% - Pressure: 1015 hPa

Sorry, no flights used the airport in this database.